Terminal Aerodrome Forecast
Issued by NWS Mt. Holly, NJ

Home | Current Version | Previous Version | Text Only | Print | Product List | Glossary On
Versions: 1 2 3 4 5 6 7 8 9 10 11 12 13 14 15 16 17 18
000
FTUS41 KPHI 300200 AAB
TAFILG
TAF AMD
KILG 300206Z 3002/3024 19006KT P6SM OVC040
     FM300800 23008KT 5SM -SHSN OVC015
     FM301200 29010KT P6SM SCT015 OVC040
     FM301400 31018G32KT P6SM BKN040=

USA.gov is the U.S. government's official web portal to all federal, state and local government web resources and services.